Time;durP1;ratioP1;P1;durP2;ratioP2;P2;SDS_P1;SDS_P2;PMS_P1;PMS_P2;Temp;Humidity;BMP_temperature;BMP_pressure;BME280_temperature;BME280_humidity;BME280_pressure;Samples;Min_cycle;Max_cycle;Signal;HPM_P1;HPM_P2
2023/06/16 04:22:33;;;;;;;7.55;4.57;;;;;;;12.19;100.00;100291.59;5171784;27;20163;-65
2023/06/16 04:24:58;;;;;;;7.75;4.38;;;;;;;12.27;100.00;100298.72;5170536;27;20034;-65
2023/06/16 04:27:25;;;;;;;6.70;4.10;;;;;;;12.38;100.00;100295.56;5170345;27;20459;-66
2023/06/16 04:29:52;;;;;;;7.40;4.80;;;;;;;12.44;100.00;100289.50;5170109;27;20517;-67
2023/06/16 04:32:18;;;;;;;5.82;4.05;;;;;;;12.54;100.00;100294.59;5170390;27;20030;-66
2023/06/16 04:34:49;;;;;;;7.18;4.63;;;;;;;12.59;100.00;100295.69;5170315;27;20065;-66
2023/06/16 04:37:16;;;;;;;8.70;3.95;;;;;;;12.60;100.00;100293.84;5170171;27;20414;-66
2023/06/16 04:39:42;;;;;;;6.70;4.75;;;;;;;12.63;100.00;100296.97;5171208;27;20034;-65
2023/06/16 04:42:10;;;;;;;8.00;5.30;;;;;;;12.70;100.00;100299.72;5170013;27;20034;-66
2023/06/16 04:44:37;;;;;;;6.70;5.13;;;;;;;12.81;100.00;100301.09;5170126;27;20090;-66
2023/06/16 04:47:02;;;;;;;12.23;8.40;;;;;;;12.90;100.00;100299.97;5171360;27;20506;-66
2023/06/16 04:49:30;;;;;;;10.00;6.65;;;;;;;12.96;100.00;100302.72;5169763;27;20034;-66
2023/06/16 04:51:56;;;;;;;14.48;9.20;;;;;;;13.10;99.70;100297.53;5170159;27;20099;-67
2023/06/16 04:54:21;;;;;;;14.30;9.15;;;;;;;13.18;100.00;100298.25;5169962;27;20475;-67
2023/06/16 04:56:47;;;;;;;9.25;6.72;;;;;;;13.29;99.60;100295.09;5169843;27;20039;-66
2023/06/16 04:59:13;;;;;;;7.55;5.07;;;;;;;13.29;98.22;100291.59;5169656;27;20034;-66
2023/06/16 05:01:39;;;;;;;7.05;4.60;;;;;;;13.41;99.08;100299.97;5170987;27;20159;-66
2023/06/16 05:04:04;;;;;;;9.82;6.32;;;;;;;13.57;100.00;100305.09;5170073;27;20039;-66
2023/06/16 05:06:35;;;;;;;8.57;5.70;;;;;;;13.67;99.22;100302.06;5169570;27;20046;-66
2023/06/16 05:09:00;;;;;;;6.10;5.15;;;;;;;13.67;95.56;100296.72;5169451;27;20071;-66
2023/06/16 05:11:25;;;;;;;6.72;4.40;;;;;;;13.80;96.88;100300.34;5170709;27;20505;-66
2023/06/16 05:13:51;;;;;;;7.32;4.55;;;;;;;13.92;96.16;100297.16;5169463;27;20082;-63
2023/06/16 05:16:16;;;;;;;5.80;4.18;;;;;;;13.97;94.63;100302.75;5169200;27;20034;-64
2023/06/16 05:18:42;;;;;;;8.00;5.28;;;;;;;14.02;94.50;100300.31;5169072;27;20142;-65
2023/06/16 05:21:07;;;;;;;7.00;4.80;;;;;;;14.09;94.78;100302.03;5169242;27;20030;-64
2023/06/16 05:23:36;;;;;;;6.88;4.70;;;;;;;14.16;94.15;100299.41;5169304;27;20388;-64
2023/06/16 05:26:03;;;;;;;8.02;5.93;;;;;;;14.25;94.23;100300.91;5169100;27;20038;-65
2023/06/16 05:28:28;;;;;;;8.05;5.10;;;;;;;14.35;93.01;100297.88;5168678;27;20038;-64
2023/06/16 05:30:53;;;;;;;6.07;4.80;;;;;;;14.45;91.73;100294.84;5169155;27;20038;-64
2023/06/16 05:33:19;;;;;;;7.40;4.45;;;;;;;14.64;88.52;100300.34;5160031;27;20029;-64
2023/06/16 05:35:44;;;;;;;5.63;4.05;;;;;;;14.72;87.84;100296.66;5156423;27;20043;-64
2023/06/16 05:38:11;;;;;;;9.90;4.68;;;;;;;14.82;87.79;100294.44;5155286;27;20057;-63
2023/06/16 05:40:37;;;;;;;5.10;4.10;;;;;;;14.94;85.46;100297.41;5154655;27;20034;-64
2023/06/16 05:43:02;;;;;;;5.93;4.43;;;;;;;15.15;83.20;100293.75;5156593;27;20543;-62
2023/06/16 05:45:28;;;;;;;6.65;3.92;;;;;;;15.24;82.98;100295.22;5155002;27;20507;-63
2023/06/16 05:47:53;;;;;;;6.28;4.68;;;;;;;15.31;83.85;100295.22;5155038;27;20050;-63
2023/06/16 05:50:19;;;;;;;8.07;5.28;;;;;;;15.39;83.79;100311.97;5154677;27;20117;-64
2023/06/16 05:52:44;;;;;;;6.53;4.43;;;;;;;15.52;83.46;100313.88;5154726;27;20043;-64
2023/06/16 05:55:10;;;;;;;5.50;4.03;;;;;;;15.68;82.73;100312.69;5156147;27;20031;-62
2023/06/16 05:57:42;;;;;;;7.15;4.25;;;;;;;15.87;81.47;100308.34;5154934;27;20026;-64
2023/06/16 06:00:09;;;;;;;5.38;3.95;;;;;;;15.94;80.37;100318.06;5154317;27;20478;-64
2023/06/16 06:02:40;;;;;;;6.40;4.00;;;;;;;16.00;81.04;100317.25;5156495;27;20087;-64
2023/06/16 06:05:12;;;;;;;4.88;4.03;;;;;;;16.07;80.21;100317.25;5141463;27;20041;-64
2023/06/16 06:07:38;;;;;;;6.10;4.07;;;;;;;16.19;80.91;100314.75;5133846;27;20031;-64
2023/06/16 06:10:04;;;;;;;8.68;4.90;;;;;;;16.23;80.36;100316.78;5134794;27;20047;-63
2023/06/16 06:12:32;;;;;;;6.88;4.85;;;;;;;16.32;78.39;100316.59;5133739;27;20035;-64
2023/06/16 06:14:58;;;;;;;8.35;4.88;;;;;;;16.37;77.88;100316.81;5133692;27;20045;-64
2023/06/16 06:17:23;;;;;;;5.40;4.25;;;;;;;16.44;77.11;100325.69;5133552;27;20054;-64
2023/06/16 06:19:49;;;;;;;4.93;4.15;;;;;;;16.53;76.99;100325.25;5133393;27;20050;-64
2023/06/16 06:22:14;;;;;;;5.78;4.28;;;;;;;16.71;75.79;100334.56;5133482;27;20031;-64
2023/06/16 06:24:40;;;;;;;8.32;5.05;;;;;;;16.83;69.84;100340.94;5133486;27;20039;-64
2023/06/16 06:27:10;;;;;;;6.53;4.53;;;;;;;16.86;68.94;100332.44;5133475;27;20035;-64
2023/06/16 06:29:35;;;;;;;7.80;4.68;;;;;;;17.04;69.23;100339.81;5133051;27;20129;-64
2023/06/16 06:32:01;;;;;;;6.85;4.60;;;;;;;17.16;68.26;100338.13;5133534;27;20068;-64
2023/06/16 06:34:27;;;;;;;6.75;4.55;;;;;;;17.30;70.49;100344.25;5133333;27;20035;-63
2023/06/16 06:36:52;;;;;;;8.65;5.75;;;;;;;17.49;69.36;100340.63;5133139;27;20050;-64
2023/06/16 06:39:18;;;;;;;9.95;5.07;;;;;;;17.59;68.69;100338.28;5132997;27;20108;-62
2023/06/16 06:41:45;;;;;;;7.70;4.57;;;;;;;17.64;68.28;100343.03;5133445;27;20508;-63
2023/06/16 06:44:17;;;;;;;7.65;4.40;;;;;;;17.72;68.80;100348.16;5132247;27;20044;-63
2023/06/16 06:46:48;;;;;;;6.95;4.38;;;;;;;17.89;67.19;100345.78;5133035;27;20031;-63
2023/06/16 06:49:14;;;;;;;6.22;4.50;;;;;;;18.02;67.00;100355.66;5132665;27;20036;-63
2023/06/16 06:51:40;;;;;;;6.45;4.63;;;;;;;18.09;67.62;100351.84;5132783;27;20023;-64
2023/06/16 06:54:07;;;;;;;6.72;4.55;;;;;;;18.42;63.15;100356.13;5134309;27;20043;-64
2023/06/16 06:56:32;;;;;;;9.43;5.30;;;;;;;18.47;63.35;100355.47;5134182;27;20034;-64
2023/06/16 06:58:58;;;;;;;7.32;4.60;;;;;;;18.58;63.15;100357.41;5134001;27;20510;-63
2023/06/16 07:01:23;;;;;;;6.75;4.80;;;;;;;18.64;63.47;100359.22;5134237;27;20084;-63
2023/06/16 07:03:49;;;;;;;8.13;4.60;;;;;;;18.78;63.67;100362.63;5134035;27;20164;-63
2023/06/16 07:06:14;;;;;;;8.75;4.82;;;;;;;18.78;64.00;100359.94;5133983;27;20041;-63
2023/06/16 07:08:40;;;;;;;8.95;5.05;;;;;;;18.98;59.71;100361.38;5133717;27;20035;-63
2023/06/16 07:11:05;;;;;;;6.03;4.45;;;;;;;19.04;60.27;100372.31;5134173;27;20100;-63
2023/06/16 07:13:31;;;;;;;6.43;4.45;;;;;;;19.09;59.86;100367.88;5133910;27;20061;-63
2023/06/16 07:15:56;;;;;;;7.93;4.82;;;;;;;19.22;58.44;100375.81;5133855;27;20172;-64
2023/06/16 07:18:22;;;;;;;9.60;5.15;;;;;;;19.44;58.83;100373.47;5133630;27;20047;-64
2023/06/16 07:20:47;;;;;;;5.53;4.32;;;;;;;19.60;57.75;100369.34;5133367;27;20110;-64
2023/06/16 07:23:12;;;;;;;6.75;4.63;;;;;;;19.77;57.40;100383.03;5133769;27;20042;-61
2023/06/16 07:25:38;;;;;;;6.78;4.90;;;;;;;19.78;56.42;100374.69;5133639;27;20043;-60
2023/06/16 07:28:04;;;;;;;7.95;4.45;;;;;;;20.02;54.41;100381.00;5133728;27;20035;-63
2023/06/16 07:30:30;;;;;;;5.63;4.30;;;;;;;20.17;53.75;100380.53;5133263;27;20031;-62
2023/06/16 07:32:55;;;;;;;8.68;4.80;;;;;;;20.22;53.34;100379.84;5133585;27;20431;-62
2023/06/16 07:35:22;;;;;;;7.35;4.22;;;;;;;20.34;53.06;100377.94;5133360;27;20122;-62
2023/06/16 07:37:48;;;;;;;11.43;5.40;;;;;;;20.32;52.80;100366.56;5133677;27;20109;-63
2023/06/16 07:40:16;;;;;;;8.10;4.30;;;;;;;20.41;52.91;100370.56;5133073;27;20110;-61
2023/06/16 07:42:45;;;;;;;9.63;5.15;;;;;;;20.62;51.89;100371.91;5133418;27;20114;-61
2023/06/16 07:45:11;;;;;;;9.00;4.78;;;;;;;20.80;51.78;100363.66;5133372;27;20111;-63
2023/06/16 07:47:39;;;;;;;6.53;4.78;;;;;;;20.96;51.19;100364.78;5133223;27;20023;-63
2023/06/16 07:50:06;;;;;;;6.90;4.63;;;;;;;20.94;51.14;100360.69;5133002;27;20034;-63
2023/06/16 07:52:31;;;;;;;7.93;4.87;;;;;;;21.13;49.67;100362.97;5133115;27;20043;-63
2023/06/16 07:54:57;;;;;;;6.35;4.60;;;;;;;21.30;50.21;100363.06;5133130;27;20269;-63
2023/06/16 07:57:22;;;;;;;8.00;4.78;;;;;;;21.45;51.24;100364.41;5133169;27;20050;-64
2023/06/16 07:59:48;;;;;;;6.97;4.20;;;;;;;21.51;49.74;100363.44;5132865;27;20035;-64
2023/06/16 08:02:13;;;;;;;5.47;4.38;;;;;;;21.75;49.12;100375.03;5132998;27;20027;-61
2023/06/16 08:04:38;;;;;;;6.63;4.35;;;;;;;21.78;48.65;100360.97;5132964;27;20126;-61
2023/06/16 08:07:04;;;;;;;6.18;4.45;;;;;;;21.96;48.63;100363.47;5132904;27;20047;-63
2023/06/16 08:09:30;;;;;;;10.63;4.60;;;;;;;22.01;48.58;100363.53;5132751;27;20034;-63
2023/06/16 08:11:55;;;;;;;8.18;4.82;;;;;;;22.11;47.61;100357.50;5133375;27;20038;-63
2023/06/16 08:14:22;;;;;;;7.88;4.40;;;;;;;22.17;47.08;100356.53;5133054;27;20426;-63
2023/06/16 08:16:47;;;;;;;10.48;4.65;;;;;;;22.16;46.00;100361.09;5132735;27;20031;-64
2023/06/16 08:19:12;;;;;;;7.18;4.43;;;;;;;22.29;46.02;100359.13;5132661;27;20103;-63
2023/06/16 08:21:38;;;;;;;8.18;4.57;;;;;;;22.43;46.36;100358.56;5132699;28;20036;-64
2023/06/16 08:24:05;;;;;;;5.90;4.15;;;;;;;22.57;44.90;100353.59;5132912;27;20035;-63
2023/06/16 08:26:30;;;;;;;7.05;4.07;;;;;;;22.74;44.69;100359.00;5132853;27;20039;-64
2023/06/16 08:28:55;;;;;;;8.43;4.45;;;;;;;22.86;44.56;100358.88;5131414;28;20050;-63
2023/06/16 08:31:21;;;;;;;7.43;3.75;;;;;;;22.88;43.88;100354.84;5132833;27;20134;-64
2023/06/16 08:33:47;;;;;;;7.00;4.25;;;;;;;23.11;42.69;100352.97;5132795;27;20122;-64
2023/06/16 08:36:12;;;;;;;5.88;4.13;;;;;;;23.26;41.38;100356.69;5132652;27;20077;-64
2023/06/16 08:38:38;;;;;;;7.95;4.35;;;;;;;23.52;40.72;100354.25;5132496;27;20027;-63
2023/06/16 08:41:07;;;;;;;7.75;4.40;;;;;;;23.46;41.46;100347.94;5132875;27;20027;-63
2023/06/16 08:43:36;;;;;;;7.63;4.60;;;;;;;23.58;40.63;100350.50;5132569;27;20486;-63
2023/06/16 08:46:05;;;;;;;6.63;4.10;;;;;;;23.68;40.88;100352.56;5132682;27;20468;-62
2023/06/16 08:48:34;;;;;;;9.55;4.07;;;;;;;23.84;38.82;100351.63;5132302;27;20046;-63
2023/06/16 08:50:59;;;;;;;7.40;4.45;;;;;;;23.91;39.06;100354.94;5132804;27;20035;-63
2023/06/16 08:53:31;;;;;;;6.85;4.18;;;;;;;24.00;37.12;100345.25;5132493;27;20037;-62
2023/06/16 08:55:58;;;;;;;7.43;4.22;;;;;;;24.10;35.92;100347.22;5132485;27;20063;-63
2023/06/16 08:58:25;;;;;;;;;;;;;;;24.20;36.51;100343.75;5132798;27;20066;-62
2023/06/16 09:00:51;;;;;;;7.90;4.38;;;;;;;24.37;36.96;100344.44;5132403;28;19919;-63
2023/06/16 09:03:17;;;;;;;6.75;3.88;;;;;;;24.59;37.01;100345.16;5132356;27;20047;-64
2023/06/16 09:05:42;;;;;;;5.15;3.60;;;;;;;24.68;36.43;100345.44;5132350;27;20045;-63
2023/06/16 09:08:08;;;;;;;7.38;3.88;;;;;;;24.86;35.09;100336.84;5134227;27;20118;-65
2023/06/16 09:10:34;;;;;;;8.90;3.30;;;;;;;25.08;34.33;100335.84;5135981;27;20119;-62
2023/06/16 09:13:00;;;;;;;5.15;3.53;;;;;;;25.38;35.61;100335.97;5136224;27;20042;-62
2023/06/16 09:15:26;;;;;;;6.07;3.70;;;;;;;25.63;34.17;100328.94;5136067;27;20054;-63
2023/06/16 09:17:52;;;;;;;5.15;3.65;;;;;;;25.41;33.94;100329.16;5136111;27;20344;-63
2023/06/16 09:20:19;;;;;;;10.23;4.30;;;;;;;25.78;33.90;100325.41;5135657;27;20031;-63
2023/06/16 09:23:04;;;;;;;6.82;3.85;;;;;;;25.84;33.31;100325.16;5136145;27;20074;-63
2023/06/16 09:25:33;;;;;;;7.30;4.30;;;;;;;26.11;32.42;100330.31;5136023;27;20050;-63
2023/06/16 09:28:07;;;;;;;6.22;3.03;;;;;;;26.31;32.32;100323.22;5134480;27;20553;-63
2023/06/16 09:30:33;;;;;;;4.75;3.13;;;;;;;26.25;31.64;100325.94;5135544;27;20031;-63
2023/06/16 09:32:59;;;;;;;5.63;2.45;;;;;;;26.30;27.39;100316.94;5135903;27;20027;-63
2023/06/16 09:35:27;;;;;;;5.18;3.00;;;;;;;26.58;29.24;100322.91;5135820;27;20059;-63
2023/06/16 09:37:56;;;;;;;9.02;3.03;;;;;;;26.57;29.10;100322.09;5135847;27;20023;-62
2023/06/16 09:40:26;;;;;;;5.53;2.78;;;;;;;26.68;27.92;100317.41;5135488;27;20573;-63
2023/06/16 09:42:51;;;;;;;4.93;2.85;;;;;;;26.73;28.08;100318.22;5135671;27;20039;-63
2023/06/16 09:45:19;;;;;;;6.57;3.42;;;;;;;27.09;28.35;100320.00;5135618;27;20113;-62
2023/06/16 09:47:47;;;;;;;7.88;3.28;;;;;;;27.28;29.04;100315.53;5135529;27;20046;-63
2023/06/16 09:50:14;;;;;;;5.13;3.00;;;;;;;27.17;27.12;100319.41;5135296;27;20035;-62
2023/06/16 09:52:44;;;;;;;4.32;2.67;;;;;;;27.37;27.42;100313.00;5135499;27;20096;-62
2023/06/16 09:55:13;;;;;;;7.88;3.10;;;;;;;27.35;27.50;100309.75;5135630;27;20506;-62
2023/06/16 09:57:43;;;;;;;6.32;3.50;;;;;;;27.56;27.68;100303.84;5135518;27;20043;-62
2023/06/16 10:00:16;;;;;;;4.22;3.10;;;;;;;27.92;26.58;100308.28;5135086;27;20056;-61
2023/06/16 10:02:50;;;;;;;5.47;3.25;;;;;;;28.01;26.61;100312.03;5135509;27;20089;-62
2023/06/16 10:05:18;;;;;;;5.85;3.60;;;;;;;27.82;26.81;100315.47;5135081;27;20502;-63
2023/06/16 10:07:48;;;;;;;5.82;3.15;;;;;;;27.74;28.47;100313.34;5135262;27;20023;-62
2023/06/16 10:10:15;;;;;;;5.95;3.25;;;;;;;28.05;25.61;100311.16;5135043;27;20035;-62
2023/06/16 10:12:46;;;;;;;4.57;3.10;;;;;;;27.81;26.48;100313.81;5135221;27;20045;-63
2023/06/16 10:15:18;;;;;;;5.10;2.88;;;;;;;28.36;25.61;100311.72;5135057;27;20070;-62
2023/06/16 10:17:46;;;;;;;7.07;3.55;;;;;;;28.74;28.82;100317.31;5134950;27;20487;-63
2023/06/16 10:20:15;;;;;;;5.97;3.83;;;;;;;29.04;26.84;100302.44;5134570;27;20035;-63
2023/06/16 10:22:41;;;;;;;5.13;3.22;;;;;;;28.88;24.40;100296.28;5135082;27;20031;-66
2023/06/16 10:25:07;;;;;;;5.32;3.60;;;;;;;28.95;25.95;100304.19;5134987;27;20046;-63
2023/06/16 10:27:34;;;;;;;6.38;3.47;;;;;;;29.23;24.63;100299.72;5134924;27;20053;-63
2023/06/16 10:30:01;;;;;;;4.70;3.25;;;;;;;29.40;25.70;100304.66;5134629;27;20039;-63
2023/06/16 10:32:26;;;;;;;5.90;3.45;;;;;;;29.45;25.33;100307.34;5134626;27;20088;-63
2023/06/16 10:34:56;;;;;;;7.28;3.65;;;;;;;29.74;25.70;100304.47;5134779;27;20437;-62
2023/06/16 10:37:27;;;;;;;7.68;3.42;;;;;;;30.16;24.57;100300.75;5134668;27;20046;-62
2023/06/16 10:39:56;;;;;;;5.95;3.63;;;;;;;30.11;23.83;100300.00;5134232;27;20043;-62
2023/06/16 10:42:22;;;;;;;4.97;3.35;;;;;;;29.94;23.73;100301.38;5134639;27;20087;-62
2023/06/16 10:44:50;;;;;;;6.50;3.53;;;;;;;29.96;24.21;100295.59;5134547;27;20043;-62
2023/06/16 10:47:15;;;;;;;6.03;3.10;;;;;;;29.86;24.01;100291.06;5134411;27;20038;-63
2023/06/16 10:49:46;;;;;;;8.70;4.43;;;;;;;30.31;25.72;100301.56;5134526;27;20629;-63
2023/06/16 10:52:30;;;;;;;9.15;4.07;;;;;;;30.40;25.97;100302.50;5134338;27;20035;-62
2023/06/16 10:54:57;;;;;;;8.48;4.38;;;;;;;30.98;25.03;100299.97;5134410;27;20475;-63
2023/06/16 10:57:25;;;;;;;8.73;3.63;;;;;;;31.17;23.24;100299.84;5134258;27;20046;-62
2023/06/16 10:59:56;;;;;;;6.78;4.03;;;;;;;30.92;23.52;100295.72;5133799;27;20093;-63
2023/06/16 11:02:27;;;;;;;4.82;3.42;;;;;;;31.05;22.98;100278.38;5134109;27;20031;-62
2023/06/16 11:05:11;;;;;;;8.13;3.83;;;;;;;31.63;23.02;100281.47;5134126;27;20491;-62
2023/06/16 11:07:46;;;;;;;8.40;4.40;;;;;;;31.67;22.08;100283.28;5134139;27;20476;-62
2023/06/16 11:10:20;;;;;;;7.82;4.10;;;;;;;31.92;23.14;100283.78;5137466;27;20361;-63
2023/06/16 11:12:46;;;;;;;6.78;4.45;;;;;;;32.36;22.92;100282.94;5134015;27;20035;-63
2023/06/16 11:15:12;;;;;;;8.80;3.80;;;;;;;31.90;24.06;100277.81;5133978;27;20039;-63
2023/06/16 11:17:37;;;;;;;5.43;3.53;;;;;;;32.50;23.09;100289.13;5133845;27;20035;-63
2023/06/16 11:20:06;;;;;;;7.80;4.83;;;;;;;32.31;22.38;100288.53;5133566;27;20123;-64
2023/06/16 11:22:36;;;;;;;6.10;4.00;;;;;;;31.69;21.81;100275.53;5133689;27;20070;-63
2023/06/16 11:25:03;;;;;;;6.40;3.95;;;;;;;32.34;22.86;100282.41;5133761;27;20035;-63
2023/06/16 11:27:30;;;;;;;8.23;4.20;;;;;;;32.52;22.16;100275.84;5133657;27;20042;-64
2023/06/16 11:29:57;;;;;;;8.40;3.83;;;;;;;32.81;22.71;100280.81;5133046;27;20039;-64
2023/06/16 11:32:34;;;;;;;12.82;4.68;;;;;;;32.37;22.21;100271.56;5133428;27;20548;-64
2023/06/16 11:35:00;;;;;;;6.75;4.32;;;;;;;31.90;23.21;100278.63;5133489;27;20058;-64
2023/06/16 11:37:51;;;;;;;9.65;4.10;;;;;;;32.51;21.64;100276.97;5133358;27;20031;-64
2023/06/16 11:40:24;;;;;;;7.32;4.00;;;;;;;32.24;22.86;100274.41;5125597;27;20107;-63
2023/06/16 11:43:03;;;;;;;7.32;4.53;;;;;;;32.60;22.55;100279.75;5133528;27;20080;-63
2023/06/16 11:45:31;;;;;;;7.63;4.55;;;;;;;33.27;22.39;100267.59;5133380;27;20551;-63
2023/06/16 11:47:59;;;;;;;7.45;4.25;;;;;;;32.99;22.97;100264.28;5133314;27;20072;-63
2023/06/16 11:50:24;;;;;;;6.78;4.38;;;;;;;33.11;23.51;100268.03;5133046;27;20060;-63
2023/06/16 11:52:51;;;;;;;7.63;4.90;;;;;;;33.32;23.81;100272.91;5134545;27;20106;-63
2023/06/16 11:55:17;;;;;;;7.63;4.30;;;;;;;33.28;22.35;100269.19;5153964;27;20554;-63
2023/06/16 11:57:44;;;;;;;6.97;4.50;;;;;;;33.46;22.73;100268.91;5154016;27;20114;-64
2023/06/16 12:00:10;;;;;;;5.22;4.28;;;;;;;33.23;22.36;100256.38;5153605;27;21117;-63
2023/06/16 12:02:37;;;;;;;8.60;4.68;;;;;;;33.05;23.60;100263.81;5153834;27;20035;-64
2023/06/16 12:05:05;;;;;;;6.55;4.38;;;;;;;33.13;22.08;100259.47;5153829;27;20027;-63
2023/06/16 12:07:32;;;;;;;5.65;4.03;;;;;;;32.86;22.69;100246.72;5153751;27;20038;-63
2023/06/16 12:10:01;;;;;;;11.77;5.05;;;;;;;33.25;21.47;100242.25;5153482;27;20034;-63
2023/06/16 12:12:28;;;;;;;8.88;4.07;;;;;;;32.46;21.54;100252.31;5153589;27;20039;-63
2023/06/16 12:14:54;;;;;;;6.63;4.40;;;;;;;32.81;23.12;100255.97;5153659;27;20510;-63
2023/06/16 12:17:23;;;;;;;10.30;4.78;;;;;;;31.66;22.96;100253.31;5153731;27;20035;-63
2023/06/16 12:19:50;;;;;;;6.30;4.15;;;;;;;31.25;23.11;100243.31;5153478;27;20057;-63
2023/06/16 12:22:16;;;;;;;8.10;4.68;;;;;;;31.62;24.59;100247.59;5153551;27;20030;-63
2023/06/16 12:24:41;;;;;;;6.23;4.23;;;;;;;32.48;22.55;100247.31;5153747;27;20110;-64
2023/06/16 12:27:06;;;;;;;8.17;3.90;;;;;;;32.72;22.31;100243.28;5153578;27;20464;-65
2023/06/16 12:29:32;;;;;;;7.50;4.50;;;;;;;32.02;22.17;100243.03;5153279;27;20038;-64
2023/06/16 12:32:00;;;;;;;6.63;4.57;;;;;;;32.24;22.24;100246.84;5153506;27;20050;-64
2023/06/16 12:34:35;;;;;;;7.55;4.95;;;;;;;32.30;22.25;100235.38;5153568;27;20133;-63
2023/06/16 12:37:03;;;;;;;9.02;4.47;;;;;;;32.26;22.38;100225.28;5153498;27;20060;-64
2023/06/16 12:39:30;;;;;;;6.88;4.60;;;;;;;32.19;22.57;100227.72;5153173;27;20027;-63
2023/06/16 12:41:55;;;;;;;6.97;4.43;;;;;;;31.50;23.56;100228.94;5153467;27;20035;-62
2023/06/16 12:44:20;;;;;;;7.73;5.03;;;;;;;31.05;24.55;100230.81;5157904;27;20083;-63
2023/06/16 12:46:46;;;;;;;6.20;4.73;;;;;;;30.65;24.86;100227.81;5157632;27;20069;-63
2023/06/16 12:49:11;;;;;;;9.13;5.30;;;;;;;29.72;25.75;100224.34;5157253;27;20048;-63
2023/06/16 12:51:37;;;;;;;7.80;4.63;;;;;;;30.50;25.11;100228.91;5157622;27;20062;-63
2023/06/16 12:54:02;;;;;;;7.23;4.83;;;;;;;31.10;24.58;100221.59;5157456;27;20038;-63
2023/06/16 12:56:27;;;;;;;13.05;4.80;;;;;;;31.41;23.65;100224.47;5157433;27;20467;-63
2023/06/16 12:58:53;;;;;;;9.20;4.45;;;;;;;31.85;23.56;100218.16;5157179;27;20042;-63
2023/06/16 13:01:19;;;;;;;6.70;4.30;;;;;;;32.09;24.33;100217.78;5157491;27;20111;-63
2023/06/16 13:03:46;;;;;;;5.63;3.87;;;;;;;32.74;23.31;100214.28;5157377;27;20062;-63
2023/06/16 13:06:18;;;;;;;9.55;4.93;;;;;;;31.82;23.29;100216.84;5156042;27;20090;-63
2023/06/16 13:08:43;;;;;;;6.25;4.43;;;;;;;31.94;22.98;100221.75;5156835;27;20023;-61
2023/06/16 13:11:09;;;;;;;7.63;4.70;;;;;;;32.11;23.70;100216.34;5157123;27;20432;-63
2023/06/16 13:13:34;;;;;;;9.13;4.77;;;;;;;31.75;22.47;100223.88;5157193;27;20155;-63
2023/06/16 13:16:00;;;;;;;6.57;4.13;;;;;;;31.45;23.01;100212.53;5156950;27;20053;-62
2023/06/16 13:18:25;;;;;;;7.20;5.00;;;;;;;31.69;23.95;100208.63;5156792;27;20039;-63
2023/06/16 13:20:51;;;;;;;6.40;4.50;;;;;;;31.58;23.90;100208.09;5156685;27;20492;-63
2023/06/16 13:23:16;;;;;;;8.40;5.00;;;;;;;31.22;23.77;100219.94;5156732;27;20042;-62
2023/06/16 13:25:42;;;;;;;7.97;4.60;;;;;;;30.86;23.93;100222.72;5156718;27;20058;-64
2023/06/16 13:28:07;;;;;;;10.03;5.23;;;;;;;30.10;24.04;100205.84;5156881;27;20030;-63
2023/06/16 13:30:32;;;;;;;9.63;4.97;;;;;;;29.93;24.71;100202.81;5156485;27;20045;-62
2023/06/16 13:32:58;;;;;;;7.10;4.97;;;;;;;30.31;25.36;100203.50;5156776;27;20445;-62
2023/06/16 13:35:24;;;;;;;9.07;4.33;;;;;;;29.79;24.59;100200.06;5156567;27;20053;-62
2023/06/16 13:37:49;;;;;;;5.55;4.05;;;;;;;29.69;26.00;100203.81;5156817;27;20073;-62
2023/06/16 13:40:15;;;;;;;6.85;5.05;;;;;;;29.55;25.27;100202.16;5156323;27;20395;-62
2023/06/16 13:42:40;;;;;;;9.40;5.28;;;;;;;29.22;25.17;100188.41;5156762;27;20030;-62
2023/06/16 13:45:06;;;;;;;7.63;4.72;;;;;;;29.18;27.26;100192.84;5156694;27;20091;-63
2023/06/16 13:47:32;;;;;;;11.97;5.87;;;;;;;29.14;26.29;100187.13;5156315;27;20035;-62
2023/06/16 13:49:57;;;;;;;10.38;5.80;;;;;;;29.12;25.57;100183.06;5156217;27;20066;-62
2023/06/16 13:52:23;;;;;;;8.27;4.10;;;;;;;29.06;25.77;100179.56;5156125;27;20062;-62
2023/06/16 13:54:49;;;;;;;6.47;4.40;;;;;;;29.03;25.82;100182.13;5155843;27;20068;-62
2023/06/16 13:57:14;;;;;;;9.93;5.05;;;;;;;28.92;26.03;100173.22;5156117;27;20287;-62
2023/06/16 13:59:40;;;;;;;9.77;5.78;;;;;;;28.76;26.46;100175.34;5155797;27;20121;-64
2023/06/16 14:02:06;;;;;;;6.75;4.68;;;;;;;28.93;26.23;100174.84;5156105;27;20117;-62
2023/06/16 14:04:31;;;;;;;8.25;4.93;;;;;;;28.69;27.66;100174.91;5156112;27;20058;-61
2023/06/16 14:06:56;;;;;;;8.77;4.70;;;;;;;28.53;26.93;100165.25;5155920;27;20041;-63
2023/06/16 14:09:22;;;;;;;9.93;4.65;;;;;;;28.52;27.69;100164.44;5154579;27;20440;-63
2023/06/16 14:11:47;;;;;;;8.15;5.05;;;;;;;28.71;27.80;100167.19;5155832;27;20035;-62
2023/06/16 14:14:13;;;;;;;9.43;5.28;;;;;;;28.61;26.70;100167.31;5155873;27;20119;-63
2023/06/16 14:16:38;;;;;;;8.18;4.47;;;;;;;28.60;26.77;100157.47;5155970;27;20039;-63
2023/06/16 14:19:04;;;;;;;9.18;5.30;;;;;;;28.64;26.56;100155.78;5155507;27;20039;-63
2023/06/16 14:21:31;;;;;;;6.18;4.75;;;;;;;28.67;26.37;100149.69;5155692;27;20025;-61
2023/06/16 14:23:57;;;;;;;8.90;4.57;;;;;;;28.76;26.61;100158.09;5155958;27;20047;-60
2023/06/16 14:26:22;;;;;;;7.50;4.97;;;;;;;28.57;26.27;100145.19;5155594;27;20039;-62
2023/06/16 14:28:48;;;;;;;7.57;4.55;;;;;;;28.60;25.97;100146.50;5155267;27;20034;-60
2023/06/16 14:31:14;;;;;;;10.30;5.43;;;;;;;28.60;26.27;100152.00;5155448;27;20039;-62
2023/06/16 14:33:39;;;;;;;6.32;4.55;;;;;;;28.47;26.95;100141.75;5155625;27;20045;-62
2023/06/16 14:36:05;;;;;;;8.23;5.40;;;;;;;28.35;26.34;100145.75;5155283;27;20049;-62
2023/06/16 14:38:30;;;;;;;8.43;4.75;;;;;;;28.24;26.60;100148.91;5154974;27;20109;-61
2023/06/16 14:40:56;;;;;;;7.75;4.85;;;;;;;28.38;27.66;100152.56;5155334;27;20035;-62
2023/06/16 14:43:21;;;;;;;7.57;4.75;;;;;;;28.41;27.19;100145.69;5155240;27;20091;-62
2023/06/16 14:45:46;;;;;;;7.22;4.43;;;;;;;28.45;27.38;100152.22;5155229;27;20087;-62
2023/06/16 14:48:12;;;;;;;6.88;4.45;;;;;;;28.49;26.92;100147.75;5155137;27;20065;-61
2023/06/16 14:50:37;;;;;;;11.10;5.53;;;;;;;28.28;27.16;100147.19;5154835;27;20035;-62
2023/06/16 14:53:03;;;;;;;8.98;5.00;;;;;;;28.13;28.24;100143.53;5155086;27;20468;-61
2023/06/16 14:55:28;;;;;;;7.18;4.65;;;;;;;28.04;27.33;100149.94;5155004;27;20054;-62
2023/06/16 14:57:53;;;;;;;9.93;4.78;;;;;;;28.11;27.81;100147.69;5155025;27;20038;-62
2023/06/16 15:00:19;;;;;;;8.20;4.75;;;;;;;27.88;27.29;100143.00;5154641;27;20103;-62
2023/06/16 15:02:45;;;;;;;7.88;4.80;;;;;;;27.98;31.19;100148.38;5154999;27;20548;-53
2023/06/16 15:05:10;;;;;;;6.53;4.65;;;;;;;27.90;30.01;100149.00;5153847;27;20045;-56
2023/06/16 15:07:36;;;;;;;8.50;4.70;;;;;;;27.74;29.67;100146.44;5154759;27;20046;-56
2023/06/16 15:10:01;;;;;;;10.27;5.20;;;;;;;27.68;29.01;100144.00;5154519;27;20031;-56
2023/06/16 15:12:26;;;;;;;6.22;5.00;;;;;;;27.48;28.29;100155.97;5154579;27;20539;-54
2023/06/16 15:14:52;;;;;;;6.18;4.53;;;;;;;27.55;31.81;100138.09;5154726;27;20069;-54
2023/06/16 15:17:17;;;;;;;10.82;4.63;;;;;;;27.73;29.94;100142.06;5154598;27;20121;-56
2023/06/16 15:19:43;;;;;;;9.40;4.38;;;;;;;27.76;30.39;100135.19;5154298;27;20033;-53
2023/06/16 15:22:08;;;;;;;12.63;5.25;;;;;;;27.94;27.98;100133.63;5154544;27;20070;-54
2023/06/16 15:24:34;;;;;;;7.07;4.55;;;;;;;27.98;28.43;100132.75;5154582;27;20103;-53
2023/06/16 15:26:59;;;;;;;9.02;5.05;;;;;;;27.93;26.92;100124.59;5154428;27;20375;-56
2023/06/16 15:29:25;;;;;;;9.57;4.75;;;;;;;27.97;28.40;100124.81;5154328;27;20039;-55
2023/06/16 15:31:53;;;;;;;6.82;4.63;;;;;;;27.93;29.40;100119.13;5154299;27;20038;-53
2023/06/16 15:34:20;;;;;;;9.85;4.93;;;;;;;27.90;34.92;100122.44;5154289;27;20035;-56
2023/06/16 15:36:45;;;;;;;8.63;5.13;;;;;;;27.78;28.30;100119.31;5154436;27;20079;-53
2023/06/16 15:39:10;;;;;;;8.80;5.22;;;;;;;27.83;29.01;100114.56;5153928;27;20038;-54
2023/06/16 15:41:36;;;;;;;7.72;4.90;;;;;;;27.73;27.82;100122.09;5154206;27;20083;-55
2023/06/16 15:44:01;;;;;;;8.25;5.20;;;;;;;27.85;30.79;100117.84;5154202;27;20031;-55